Impacts TAF Board INFO
FOR SITUATIONAL AWARENESS. NOT TO BE USED FOR FLIGHT PLANNING PURPOSES.
IDs:

KPIT - Pittsburgh Intl, PA, US

Issued at 1137 UTC 12 Dec 2017
Updated at 1207 UTC 12 Dec 2017
Potential Impact None Slight Moderate High
Time1151Z 12/13Z 12/14Z 12/15Z 12/16Z 12/17Z 12/18Z 12/19Z 12/20Z 12/21Z 12/22Z 12/23Z 13/00Z 13/01Z>>
Type OBS PRVL
  [TEMP]  
PRVL
  [TEMP]  
PRVL PRVL PRVL PRVL PRVL PRVL PRVL PRVL PRVL PRVL PRVL
VIS 6 6
  [1]  
6
  [1]  
6 6 >6 >6 >6 >6 >6 >6 >6 >6 5
CIG 16 10
  [8]  
10
  [8]  
10 10 25 25 25 25 25 25 25 25 10
Cover OVC OVC
  [BKN]  
OVC
  [BKN]  
OVC OVC OVC OVC OVC OVC OVC OVC OVC OVC OVC
FltCat MVFR MVFR
  [IFR]  
MVFR
  [IFR]  
MVFR MVFR MVFR MVFR MVFR MVFR MVFR MVFR MVFR MVFR MVFR
WX -SN -SN
  [-SN]  
-SN
  [-SN]  
-SN -SN -- -- -- -- -- -- -- -- -SN
WDir 270 260
[260]
260
[260]
260 260 280 280 280 280 280 280 280 280 300
WSpd 11 12
  [12]  
12
  [12]  
12 12 14 14 14 14 14 14 14 14 15
WGst -- 25
  [25]  
25
  [25]  
25 25 30 30 30 30 30 30 30 30 28

Raw TAF
KPIT 121137Z 1212/1318 26012G25KT 6SM -SN OVC010
  TEMPO 1212/1215 1SM -SN BKN008
  FM121700 28014G30KT P6SM OVC025
  FM130100 30015G28KT 5SM -SN OVC010
  FM130800 29012G20KT P6SM BKN015


Raw METAR
KPIT 121151Z 27011KT 6SM -SN OVC016 02/M01 A2961 RMK AO2 SLP042 P0001 60001 70001 T00221011 10061 20017 53020
KPIT 121051Z 27009G21KT 8SM -SN OVC015 03/M01 A2958 RMK AO2 SNB20 SLP032 P0000 T00281011
KPIT 120951Z 25011G18KT 10SM OVC021 04/M01 A2956 RMK AO2 RAB07E29SNB10E45 SLP026 P0000 T00391011

METAR Board
Radar Display
Forecast Discussion

FOR SITUATIONAL AWARENESS. NOT TO BE USED FOR FLIGHT PLANNING PURPOSES.